createdAt,value
2023-05-31T00:01:43.799Z,16.36
2023-05-31T00:04:15.409Z,16.34
2023-05-31T00:06:47.126Z,16.26
2023-05-31T00:09:18.650Z,16.24
2023-05-31T00:11:50.129Z,16.13
2023-05-31T00:14:21.600Z,16.11
2023-05-31T00:17:24.048Z,16.12
2023-05-31T00:19:45.416Z,16.09
2023-05-31T00:22:18.132Z,16.04
2023-05-31T00:24:48.563Z,16.01
2023-05-31T00:27:20.340Z,16.00
2023-05-31T00:29:51.825Z,15.96
2023-05-31T00:32:23.699Z,15.95
2023-05-31T00:34:55.065Z,15.91
2023-05-31T00:37:26.467Z,15.93
2023-05-31T00:39:57.826Z,15.91
2023-05-31T00:42:29.290Z,15.86
2023-05-31T00:45:00.667Z,15.83
2023-05-31T00:47:32.483Z,15.83
2023-05-31T00:50:04.332Z,15.81
2023-05-31T00:52:41.115Z,15.80
2023-05-31T00:55:13.478Z,15.72
2023-05-31T00:57:46.547Z,15.70
2023-05-31T01:00:19.052Z,15.63
2023-05-31T01:02:51.886Z,15.61
2023-05-31T01:05:24.102Z,15.61
2023-05-31T01:07:55.553Z,15.56
2023-05-31T01:10:27.170Z,15.55
2023-05-31T01:13:08.324Z,15.51
2023-05-31T01:15:48.736Z,15.49
2023-05-31T01:18:27.800Z,15.43
2023-05-31T01:21:04.388Z,15.40
2023-05-31T01:24:02.247Z,15.37
2023-05-31T01:26:47.041Z,15.31
2023-05-31T01:29:23.336Z,15.23
2023-05-31T01:31:57.254Z,15.20
2023-05-31T01:34:28.802Z,15.22
2023-05-31T01:37:00.580Z,15.18
2023-05-31T01:39:32.318Z,15.15
2023-05-31T01:42:07.015Z,15.10
2023-05-31T01:44:41.241Z,15.08
2023-05-31T01:47:13.826Z,15.05
2023-05-31T01:49:46.066Z,15.03
2023-05-31T01:52:19.459Z,15.02
2023-05-31T01:54:50.924Z,14.87
2023-05-31T01:57:23.598Z,14.65
2023-05-31T01:59:56.309Z,14.36
2023-05-31T02:02:26.865Z,14.20
2023-05-31T02:05:09.755Z,14.21
2023-05-31T02:07:49.004Z,14.32
2023-05-31T02:10:32.072Z,14.37
2023-05-31T02:13:07.682Z,14.39
2023-05-31T02:15:42.652Z,14.33
2023-05-31T02:18:18.277Z,14.22
2023-05-31T02:20:52.001Z,14.23
2023-05-31T02:23:25.409Z,14.25
2023-05-31T02:25:57.405Z,14.09
2023-05-31T02:28:29.890Z,14.01
2023-05-31T02:31:02.533Z,13.91
2023-05-31T02:33:35.346Z,13.99
2023-05-31T02:36:07.738Z,14.01
2023-05-31T02:38:40.191Z,13.96
2023-05-31T02:41:11.722Z,13.79
2023-05-31T02:43:43.801Z,13.75
2023-05-31T02:46:16.757Z,13.66
2023-05-31T02:48:48.407Z,13.61
2023-05-31T02:51:20.495Z,13.69
2023-05-31T02:54:18.318Z,13.53
2023-05-31T02:56:50.321Z,13.55
2023-05-31T02:59:26.177Z,13.47
2023-05-31T03:02:03.729Z,13.40
2023-05-31T03:04:49.593Z,13.34
2023-05-31T03:07:21.186Z,13.30
2023-05-31T03:09:52.804Z,13.26
2023-05-31T03:12:24.937Z,13.24
2023-05-31T03:14:56.809Z,13.31
2023-05-31T03:17:28.326Z,13.43
2023-05-31T03:19:59.934Z,13.48
2023-05-31T03:22:31.970Z,13.54
2023-05-31T03:25:05.035Z,13.57
2023-05-31T03:27:36.494Z,13.61
2023-05-31T03:30:09.918Z,13.60
2023-05-31T03:32:47.201Z,13.61
2023-05-31T03:35:18.969Z,13.64
2023-05-31T03:37:50.872Z,13.62
2023-05-31T03:40:22.686Z,13.61
2023-05-31T03:42:54.110Z,13.57
2023-05-31T03:45:27.044Z,13.59
2023-05-31T03:47:58.902Z,13.66
2023-05-31T03:50:30.484Z,13.71
2023-05-31T03:53:02.014Z,13.76
2023-05-31T03:55:33.606Z,13.75
2023-05-31T03:58:05.429Z,13.77
2023-05-31T04:00:38.750Z,13.80
2023-05-31T04:03:13.247Z,13.78
2023-05-31T04:05:46.167Z,13.72
2023-05-31T04:08:16.709Z,13.74
2023-05-31T04:10:48.213Z,13.76
2023-05-31T04:13:20.391Z,13.79
2023-05-31T04:15:52.772Z,13.78
2023-05-31T04:18:24.757Z,13.79
2023-05-31T04:20:56.372Z,13.79
2023-05-31T04:23:27.872Z,13.80
2023-05-31T04:26:01.233Z,13.85
2023-05-31T04:28:32.986Z,13.79
2023-05-31T04:31:04.941Z,13.80
2023-05-31T04:33:37.862Z,13.84
2023-05-31T04:36:10.795Z,13.90
2023-05-31T04:38:42.629Z,13.93
2023-05-31T04:41:15.512Z,13.94
2023-05-31T04:43:48.753Z,13.87
2023-05-31T04:46:22.650Z,13.93
2023-05-31T04:48:58.149Z,14.00
2023-05-31T04:51:29.959Z,14.05
2023-05-31T04:54:02.025Z,14.08
2023-05-31T04:56:33.551Z,14.07
2023-05-31T04:59:05.599Z,14.08
2023-05-31T05:01:38.443Z,14.12
2023-05-31T05:04:15.147Z,14.15
2023-05-31T05:06:48.664Z,14.18
2023-05-31T05:09:19.296Z,14.21
2023-05-31T05:11:51.375Z,14.24
2023-05-31T05:14:23.268Z,14.33
2023-05-31T05:16:55.633Z,14.39
2023-05-31T05:19:27.848Z,14.37
2023-05-31T05:21:59.739Z,14.29
2023-05-31T05:24:31.686Z,14.33
2023-05-31T05:27:02.856Z,14.39
2023-05-31T05:29:34.894Z,14.37
2023-05-31T05:32:08.627Z,14.42
2023-05-31T05:34:41.044Z,14.46
2023-05-31T05:37:13.371Z,14.55
2023-05-31T05:39:45.676Z,14.56
2023-05-31T05:42:17.472Z,14.63
2023-05-31T05:44:49.313Z,14.67
2023-05-31T05:47:21.366Z,14.63
2023-05-31T05:49:55.408Z,14.72
2023-05-31T05:52:27.308Z,14.84
2023-05-31T05:54:59.358Z,14.89
2023-05-31T05:57:31.615Z,14.96
2023-05-31T06:00:16.638Z,15.06
2023-05-31T06:02:51.796Z,15.07
2023-05-31T06:05:26.931Z,15.05
2023-05-31T06:08:03.762Z,15.10
2023-05-31T06:10:41.698Z,15.11
2023-05-31T06:13:14.034Z,15.20
2023-05-31T06:15:46.261Z,15.33
2023-05-31T06:18:18.134Z,15.37
2023-05-31T06:20:50.803Z,15.44
2023-05-31T06:23:22.721Z,15.42
2023-05-31T06:25:54.775Z,15.45
2023-05-31T06:28:26.777Z,15.55
2023-05-31T06:31:02.010Z,15.61
2023-05-31T06:33:34.194Z,15.66
2023-05-31T06:36:06.591Z,15.73
2023-05-31T06:38:38.635Z,15.77
2023-05-31T06:41:12.349Z,15.79
2023-05-31T06:43:43.100Z,15.86
2023-05-31T06:46:33.516Z,15.92
2023-05-31T06:49:24.018Z,16.01
2023-05-31T06:52:16.005Z,16.05
2023-05-31T06:55:17.076Z,16.09
2023-05-31T06:57:49.395Z,16.15
2023-05-31T07:00:22.354Z,16.17
2023-05-31T07:02:54.982Z,16.22
2023-05-31T07:05:27.200Z,16.24
2023-05-31T07:07:59.447Z,16.32
2023-05-31T07:10:31.804Z,16.41
2023-05-31T07:13:03.611Z,16.51
2023-05-31T07:15:35.754Z,16.61
2023-05-31T07:18:08.130Z,16.70
2023-05-31T07:20:40.312Z,16.75
2023-05-31T07:23:12.235Z,16.74
2023-05-31T07:25:44.588Z,16.80
2023-05-31T07:28:16.569Z,16.90
2023-05-31T07:30:48.456Z,16.97
2023-05-31T07:33:28.375Z,17.02
2023-05-31T07:36:03.350Z,17.09
2023-05-31T07:38:35.518Z,17.16
2023-05-31T07:41:07.655Z,17.19
2023-05-31T07:43:40.754Z,17.20
2023-05-31T07:46:12.804Z,17.25
2023-05-31T07:48:44.750Z,17.28
2023-05-31T07:51:17.481Z,17.30
2023-05-31T07:53:49.920Z,17.28
2023-05-31T07:56:21.927Z,17.32
2023-05-31T07:58:53.960Z,17.36
2023-05-31T08:01:25.800Z,17.39
2023-05-31T08:04:07.130Z,17.44
2023-05-31T08:06:39.226Z,17.49
2023-05-31T08:09:11.736Z,17.55
2023-05-31T08:11:43.609Z,17.62
2023-05-31T08:14:15.585Z,17.67
2023-05-31T08:16:50.271Z,17.68
2023-05-31T08:19:22.439Z,17.74
2023-05-31T08:21:54.263Z,17.81
2023-05-31T08:24:26.253Z,17.86
2023-05-31T08:26:59.388Z,17.93
2023-05-31T08:29:31.527Z,18.00
2023-05-31T08:32:03.304Z,18.06
2023-05-31T08:34:35.068Z,18.13
2023-05-31T08:37:07.394Z,18.22
2023-05-31T08:39:39.216Z,18.28
2023-05-31T08:42:17.157Z,18.32
2023-05-31T08:44:49.869Z,18.36
2023-05-31T08:47:24.132Z,18.43
2023-05-31T08:49:57.678Z,18.41
2023-05-31T08:52:30.720Z,18.41
2023-05-31T08:55:03.208Z,18.42
2023-05-31T08:57:36.641Z,18.49
2023-05-31T09:00:13.772Z,18.55
2023-05-31T09:02:49.349Z,18.59
2023-05-31T09:05:21.389Z,18.68
2023-05-31T09:07:53.620Z,18.77
2023-05-31T09:10:25.441Z,18.85
2023-05-31T09:12:57.620Z,18.90
2023-05-31T09:15:29.839Z,18.99
2023-05-31T09:18:13.822Z,19.06
2023-05-31T09:20:48.709Z,19.14
2023-05-31T09:23:22.133Z,19.22
2023-05-31T09:25:55.710Z,19.31
2023-05-31T09:28:28.217Z,19.35
2023-05-31T09:31:08.813Z,19.42
2023-05-31T09:33:45.373Z,19.54
2023-05-31T09:36:26.129Z,19.65
2023-05-31T09:39:05.092Z,19.75
2023-05-31T09:41:37.272Z,19.85
2023-05-31T09:44:11.535Z,19.92
2023-05-31T09:46:43.988Z,20.06
2023-05-31T09:49:16.310Z,20.19
2023-05-31T09:51:54.946Z,20.33
2023-05-31T09:54:28.699Z,20.44
2023-05-31T09:57:02.883Z,20.56
2023-05-31T09:59:33.836Z,20.61
2023-05-31T10:02:06.310Z,20.62
2023-05-31T10:04:36.743Z,20.81
2023-05-31T10:07:10.130Z,21.07
2023-05-31T10:09:41.959Z,21.25
2023-05-31T10:12:16.157Z,21.28
2023-05-31T10:14:51.841Z,21.30
2023-05-31T10:17:29.776Z,21.37
2023-05-31T10:20:06.097Z,21.50
2023-05-31T10:22:41.923Z,21.61
2023-05-31T10:25:20.146Z,21.67
2023-05-31T10:27:56.421Z,21.76
2023-05-31T10:30:32.308Z,21.99
2023-05-31T10:33:12.902Z,22.13
2023-05-31T10:35:48.265Z,22.39
2023-05-31T10:38:28.574Z,22.28
2023-05-31T10:41:05.768Z,22.13
2023-05-31T10:43:44.765Z,22.26
2023-05-31T10:46:21.786Z,22.43
2023-05-31T10:48:57.046Z,22.21
2023-05-31T10:51:43.193Z,22.30
2023-05-31T10:54:22.164Z,22.41
2023-05-31T10:56:58.509Z,22.59
2023-05-31T10:59:30.725Z,22.69
2023-05-31T11:02:01.883Z,22.83
2023-05-31T11:04:33.868Z,22.94
2023-05-31T11:07:17.676Z,23.00
2023-05-31T11:10:01.147Z,23.19
2023-05-31T11:12:37.569Z,23.38
2023-05-31T11:15:16.354Z,23.64
2023-05-31T11:17:56.732Z,23.56
2023-05-31T11:20:30.157Z,23.32
2023-05-31T11:23:31.683Z,23.42
2023-05-31T11:26:19.512Z,23.52
2023-05-31T11:29:10.832Z,23.48
2023-05-31T11:32:02.803Z,23.48
2023-05-31T11:34:50.171Z,23.67
2023-05-31T11:37:24.398Z,23.98
2023-05-31T11:39:57.802Z,24.08
2023-05-31T11:42:33.983Z,24.17
2023-05-31T11:45:08.671Z,24.14
2023-05-31T11:48:01.226Z,24.31
2023-05-31T11:50:34.762Z,24.36
2023-05-31T11:53:08.246Z,24.20
2023-05-31T11:55:40.036Z,24.15
2023-05-31T11:58:12.175Z,24.32
2023-05-31T12:00:48.764Z,24.32
2023-05-31T12:03:22.840Z,24.22
2023-05-31T12:05:58.440Z,24.29
2023-05-31T12:08:30.623Z,24.32
2023-05-31T12:11:07.190Z,24.24
2023-05-31T12:13:39.063Z,24.37
2023-05-31T12:16:10.975Z,24.43
2023-05-31T12:18:42.854Z,24.29
2023-05-31T12:21:16.755Z,24.27
2023-05-31T12:23:59.611Z,24.26
2023-05-31T12:26:37.625Z,24.27
2023-05-31T12:29:10.011Z,24.38
2023-05-31T12:31:42.552Z,24.48
2023-05-31T12:34:13.940Z,24.48
2023-05-31T12:36:48.589Z,24.62
2023-05-31T12:39:25.619Z,24.63
2023-05-31T12:41:59.555Z,24.60
2023-05-31T12:44:32.890Z,24.64
2023-05-31T12:47:08.971Z,24.67
2023-05-31T12:49:42.954Z,24.67
2023-05-31T12:52:18.868Z,24.59
2023-05-31T12:54:50.918Z,24.61
2023-05-31T12:57:23.230Z,24.71
2023-05-31T13:00:03.298Z,24.80
2023-05-31T13:02:35.412Z,24.64
2023-05-31T13:05:08.520Z,24.54
2023-05-31T13:07:41.568Z,24.65
2023-05-31T13:10:15.489Z,24.76
2023-05-31T13:12:47.826Z,24.96
2023-05-31T13:15:20.311Z,25.19
2023-05-31T13:17:53.307Z,25.29
2023-05-31T13:20:25.694Z,25.30
2023-05-31T13:22:58.204Z,25.34
2023-05-31T13:25:35.619Z,25.23
2023-05-31T13:28:07.595Z,25.15
2023-05-31T13:30:40.407Z,25.14
2023-05-31T13:33:12.264Z,25.08
2023-05-31T13:35:44.515Z,25.14
2023-05-31T13:38:16.654Z,25.35
2023-05-31T13:40:48.624Z,25.42
2023-05-31T13:43:20.744Z,25.51
2023-05-31T13:45:52.664Z,25.66
2023-05-31T13:48:24.508Z,25.74
2023-05-31T13:50:56.295Z,25.84
2023-05-31T13:53:28.971Z,25.82
2023-05-31T13:56:03.729Z,25.72
2023-05-31T13:58:37.526Z,25.77
2023-05-31T14:01:10.151Z,25.83
2023-05-31T14:03:42.428Z,25.96
2023-05-31T14:06:14.957Z,25.99
2023-05-31T14:08:46.805Z,26.26
2023-05-31T14:11:18.896Z,26.32
2023-05-31T14:13:52.230Z,26.30
2023-05-31T14:16:24.678Z,26.46
2023-05-31T14:18:56.750Z,26.34
2023-05-31T14:21:29.254Z,26.28
2023-05-31T14:24:01.242Z,26.22
2023-05-31T14:26:33.352Z,26.21
2023-05-31T14:29:04.127Z,26.25
2023-05-31T14:31:38.145Z,26.34
2023-05-31T14:34:10.075Z,26.50
2023-05-31T14:36:43.360Z,26.81
2023-05-31T14:39:15.913Z,27.09
2023-05-31T14:41:47.706Z,27.14
2023-05-31T14:44:19.863Z,27.18
2023-05-31T14:46:53.455Z,27.12
2023-05-31T14:49:26.203Z,27.25
2023-05-31T14:51:58.542Z,27.57
2023-05-31T14:54:30.532Z,27.87
2023-05-31T14:57:03.609Z,28.04
2023-05-31T14:59:35.637Z,28.15
2023-05-31T15:02:08.398Z,28.37
2023-05-31T15:04:41.380Z,28.52
2023-05-31T15:07:14.566Z,28.76
2023-05-31T15:09:46.378Z,28.81
2023-05-31T15:12:18.340Z,28.84
2023-05-31T15:14:50.450Z,28.75
2023-05-31T15:17:20.878Z,28.50
2023-05-31T15:19:53.310Z,28.57
2023-05-31T15:22:25.469Z,28.54
2023-05-31T15:24:55.761Z,28.56
2023-05-31T15:27:27.631Z,28.61
2023-05-31T15:29:59.393Z,28.53
2023-05-31T15:32:31.213Z,28.74
2023-05-31T15:35:03.096Z,28.78
2023-05-31T15:37:36.331Z,29.18
2023-05-31T15:40:10.428Z,29.05
2023-05-31T15:42:42.335Z,29.14
2023-05-31T15:45:14.555Z,29.04
2023-05-31T15:47:44.998Z,28.79
2023-05-31T15:50:17.617Z,28.68
2023-05-31T15:52:49.711Z,28.55
2023-05-31T15:55:22.371Z,28.61
2023-05-31T15:57:54.367Z,28.61
2023-05-31T16:00:26.588Z,28.75
2023-05-31T16:02:58.487Z,29.03
2023-05-31T16:05:30.669Z,29.12
2023-05-31T16:08:03.448Z,29.16
2023-05-31T16:10:35.339Z,29.41
2023-05-31T16:13:09.447Z,29.89
2023-05-31T16:15:41.593Z,29.66
2023-05-31T16:18:12.024Z,29.69
2023-05-31T16:20:44.055Z,29.48
2023-05-31T16:23:16.056Z,29.35
2023-05-31T16:25:48.372Z,29.38
2023-05-31T16:28:20.215Z,29.54
2023-05-31T16:30:52.277Z,29.94
2023-05-31T16:33:22.930Z,30.22
2023-05-31T16:35:54.812Z,30.37
2023-05-31T16:40:09.880Z,30.78
2023-05-31T16:42:41.889Z,31.35
2023-05-31T16:45:12.531Z,31.82
2023-05-31T16:47:44.390Z,31.59
2023-05-31T16:50:16.026Z,31.00
2023-05-31T16:52:52.438Z,30.88
2023-05-31T16:55:24.778Z,30.80
2023-05-31T16:57:57.508Z,30.84
2023-05-31T17:00:29.731Z,30.29
2023-05-31T17:03:02.108Z,29.57
2023-05-31T17:05:34.502Z,28.51
2023-05-31T17:08:04.931Z,28.03
2023-05-31T17:10:36.880Z,27.60
2023-05-31T17:13:10.448Z,27.26
2023-05-31T17:15:43.252Z,26.85
2023-05-31T17:18:13.679Z,26.65
2023-05-31T17:20:46.553Z,26.52
2023-05-31T17:23:17.116Z,26.22
2023-05-31T17:25:49.095Z,26.09
2023-05-31T17:28:21.109Z,26.15
2023-05-31T17:30:53.714Z,26.17
2023-05-31T17:33:25.649Z,26.29
2023-05-31T17:35:57.817Z,26.18
2023-05-31T17:38:29.704Z,26.02
2023-05-31T17:41:01.764Z,25.87
2023-05-31T17:43:34.338Z,25.77
2023-05-31T17:46:06.238Z,25.63
2023-05-31T17:48:43.194Z,25.54
2023-05-31T17:51:15.268Z,25.43
2023-05-31T17:53:48.028Z,25.47
2023-05-31T17:56:20.494Z,25.40
2023-05-31T17:58:52.405Z,25.25
2023-05-31T18:01:25.303Z,25.17
2023-05-31T18:03:57.620Z,25.06
2023-05-31T18:06:30.015Z,24.95
2023-05-31T18:09:01.839Z,24.89
2023-05-31T18:11:34.164Z,24.80
2023-05-31T18:14:06.898Z,24.68
2023-05-31T18:16:39.730Z,24.58
2023-05-31T18:19:11.527Z,24.53
2023-05-31T18:21:45.362Z,24.42
2023-05-31T18:24:17.626Z,24.30
2023-05-31T18:26:51.887Z,24.22
2023-05-31T18:29:24.143Z,24.12
2023-05-31T18:31:56.366Z,24.02
2023-05-31T18:34:28.791Z,23.92
2023-05-31T18:37:01.243Z,23.79
2023-05-31T18:39:33.366Z,23.60
2023-05-31T18:42:07.820Z,23.51
2023-05-31T18:44:40.022Z,23.38
2023-05-31T18:47:11.999Z,23.27
2023-05-31T18:49:43.809Z,23.14
2023-05-31T18:52:18.163Z,23.07
2023-05-31T18:54:50.005Z,23.07
2023-05-31T18:57:22.164Z,23.02
2023-05-31T18:59:54.276Z,22.96
2023-05-31T19:02:26.615Z,22.84
2023-05-31T19:04:58.865Z,22.80
2023-05-31T19:07:30.931Z,22.76
2023-05-31T19:10:05.734Z,22.64
2023-05-31T19:12:37.588Z,22.53
2023-05-31T19:15:12.923Z,22.47
2023-05-31T19:17:47.061Z,22.38
2023-05-31T19:20:19.212Z,22.33
2023-05-31T19:22:56.234Z,22.17
2023-05-31T19:25:28.407Z,22.13
2023-05-31T19:28:03.773Z,22.01
2023-05-31T19:30:35.582Z,21.96
2023-05-31T19:33:08.959Z,21.84
2023-05-31T19:35:41.202Z,21.75
2023-05-31T19:38:13.343Z,21.66
2023-05-31T19:40:45.194Z,21.60
2023-05-31T19:43:17.414Z,21.54
2023-05-31T19:45:51.137Z,21.48
2023-05-31T19:48:23.119Z,21.43
2023-05-31T19:50:54.948Z,21.38
2023-05-31T19:53:28.482Z,21.30
2023-05-31T19:56:00.954Z,21.16
2023-05-31T19:58:33.599Z,20.95
2023-05-31T20:01:06.991Z,20.95
2023-05-31T20:03:39.936Z,20.86
2023-05-31T20:06:12.354Z,20.77
2023-05-31T20:08:47.415Z,20.60
2023-05-31T20:11:20.620Z,20.35
2023-05-31T20:13:54.232Z,20.31
2023-05-31T20:16:28.266Z,20.36
2023-05-31T20:19:00.195Z,20.37
2023-05-31T20:21:33.125Z,20.31
2023-05-31T20:24:05.436Z,20.23
2023-05-31T20:26:37.384Z,20.17
2023-05-31T20:29:09.327Z,20.13
2023-05-31T20:31:41.340Z,20.11
2023-05-31T20:34:14.918Z,20.08
2023-05-31T20:36:49.003Z,19.98
2023-05-31T20:39:21.399Z,19.99
2023-05-31T20:41:53.434Z,19.95
2023-05-31T20:44:26.310Z,19.73
2023-05-31T20:46:58.577Z,19.42
2023-05-31T20:49:30.368Z,19.32
2023-05-31T20:52:05.410Z,19.30
2023-05-31T20:54:37.459Z,19.37
2023-05-31T20:57:11.283Z,19.39
2023-05-31T20:59:43.432Z,19.40
2023-05-31T21:02:15.294Z,19.31
2023-05-31T21:04:48.760Z,19.15
2023-05-31T21:07:20.850Z,19.02
2023-05-31T21:09:54.016Z,19.04
2023-05-31T21:12:26.322Z,19.00
2023-05-31T21:14:58.184Z,19.02
2023-05-31T21:17:31.564Z,19.07
2023-05-31T21:20:04.682Z,19.00
2023-05-31T21:22:36.979Z,18.95
2023-05-31T21:25:11.156Z,18.84
2023-05-31T21:27:44.062Z,18.83
2023-05-31T21:30:16.843Z,18.77
2023-05-31T21:32:47.169Z,18.70
2023-05-31T21:35:19.635Z,18.62
2023-05-31T21:37:51.534Z,18.69
2023-05-31T21:40:24.493Z,18.74
2023-05-31T21:42:56.326Z,18.71
2023-05-31T21:45:28.045Z,18.67
2023-05-31T21:48:00.223Z,18.60
2023-05-31T21:50:32.115Z,18.46
2023-05-31T21:53:03.993Z,18.41
2023-05-31T21:55:35.844Z,18.32
2023-05-31T21:58:07.639Z,18.37
2023-05-31T22:00:39.512Z,18.24
2023-05-31T22:03:11.254Z,18.12
2023-05-31T22:05:44.222Z,18.13
2023-05-31T22:08:15.926Z,18.15
2023-05-31T22:10:47.822Z,18.16
2023-05-31T22:13:19.562Z,18.10
2023-05-31T22:15:52.513Z,18.05
2023-05-31T22:18:24.249Z,17.98
2023-05-31T22:20:56.495Z,17.90
2023-05-31T22:23:29.217Z,17.83
2023-05-31T22:25:59.567Z,17.79
2023-05-31T22:28:31.476Z,17.69
2023-05-31T22:31:03.823Z,17.52
2023-05-31T22:33:35.991Z,17.31
2023-05-31T22:36:09.214Z,17.26
2023-05-31T22:38:40.959Z,17.21
2023-05-31T22:41:12.823Z,17.12
2023-05-31T22:43:44.662Z,17.14
2023-05-31T22:46:16.694Z,17.26
2023-05-31T22:48:48.606Z,17.26
2023-05-31T22:51:20.543Z,17.27
2023-05-31T22:53:52.269Z,17.19
2023-05-31T22:56:24.029Z,17.11
2023-05-31T22:58:55.953Z,17.01
2023-05-31T23:01:27.657Z,16.90
2023-05-31T23:04:01.454Z,16.71
2023-05-31T23:06:34.267Z,16.64
2023-05-31T23:09:06.643Z,16.62
2023-05-31T23:11:38.393Z,16.66
2023-05-31T23:14:10.249Z,16.68
2023-05-31T23:16:42.424Z,16.57
2023-05-31T23:19:15.054Z,16.56
2023-05-31T23:21:46.840Z,16.56
2023-05-31T23:24:18.609Z,16.64
2023-05-31T23:26:50.285Z,16.72
2023-05-31T23:29:22.122Z,16.70
2023-05-31T23:31:53.941Z,16.62
2023-05-31T23:34:25.836Z,16.54
2023-05-31T23:36:57.608Z,16.40
2023-05-31T23:39:29.305Z,16.39
2023-05-31T23:42:01.556Z,16.33
2023-05-31T23:44:33.372Z,16.31
2023-05-31T23:47:05.362Z,16.26
2023-05-31T23:49:37.150Z,16.21
2023-05-31T23:52:09.391Z,16.23
2023-05-31T23:54:41.858Z,16.22
2023-05-31T23:57:13.955Z,16.08
2023-05-31T23:59:45.694Z,15.85
